createdAt,value
2023-01-19T00:01:44.936Z,4.65
2023-01-19T00:04:13.418Z,4.00
2023-01-19T00:06:41.543Z,4.22
2023-01-19T00:09:10.981Z,4.68
2023-01-19T00:11:39.427Z,5.00
2023-01-19T00:14:07.641Z,5.40
2023-01-19T00:16:35.734Z,4.60
2023-01-19T00:19:04.293Z,4.80
2023-01-19T00:21:32.631Z,5.47
2023-01-19T00:24:00.781Z,4.50
2023-01-19T00:26:30.265Z,4.93
2023-01-19T00:28:58.321Z,4.53
2023-01-19T00:31:26.679Z,4.85
2023-01-19T00:33:54.717Z,4.30
2023-01-19T00:36:22.809Z,4.15
2023-01-19T00:38:51.025Z,4.45
2023-01-19T00:41:19.506Z,4.40
2023-01-19T00:43:48.107Z,4.72
2023-01-19T00:46:16.327Z,4.82
2023-01-19T00:48:45.050Z,4.53
2023-01-19T00:51:13.779Z,5.45
2023-01-19T00:53:41.808Z,4.20
2023-01-19T00:56:09.778Z,5.05
2023-01-19T00:58:38.164Z,5.20
2023-01-19T01:01:08.066Z,4.43
2023-01-19T01:03:36.066Z,5.20
2023-01-19T01:06:04.567Z,4.95
2023-01-19T01:08:33.324Z,4.72
2023-01-19T01:11:02.044Z,4.68
2023-01-19T01:13:33.550Z,4.90
2023-01-19T01:16:02.749Z,4.85
2023-01-19T01:18:32.463Z,4.70
2023-01-19T01:21:03.371Z,5.13
2023-01-19T01:23:31.568Z,4.45
2023-01-19T01:25:59.450Z,5.00
2023-01-19T01:28:27.678Z,4.47
2023-01-19T01:30:56.490Z,3.90
2023-01-19T01:33:40.791Z,4.50
2023-01-19T01:36:11.737Z,5.20
2023-01-19T01:38:40.238Z,4.63
2023-01-19T01:41:09.216Z,4.60
2023-01-19T01:43:45.703Z,4.80
2023-01-19T01:46:15.727Z,4.70
2023-01-19T01:48:47.777Z,4.70
2023-01-19T01:51:25.810Z,4.63
2023-01-19T01:54:04.400Z,4.75
2023-01-19T01:56:37.040Z,4.38
2023-01-19T01:59:10.433Z,4.32
2023-01-19T02:01:56.377Z,4.22
2023-01-19T02:04:25.226Z,4.50
2023-01-19T02:07:12.333Z,4.20
2023-01-19T02:09:58.100Z,5.00
2023-01-19T02:12:46.065Z,5.03
2023-01-19T02:15:18.612Z,4.20
2023-01-19T02:17:47.009Z,4.47
2023-01-19T02:20:15.076Z,4.32
2023-01-19T02:22:49.696Z,4.15
2023-01-19T02:25:22.790Z,5.05
2023-01-19T02:27:53.169Z,4.38
2023-01-19T02:30:21.457Z,4.30
2023-01-19T02:32:50.131Z,3.83
2023-01-19T02:35:18.593Z,4.50
2023-01-19T02:37:46.798Z,4.15
2023-01-19T02:40:27.906Z,4.30
2023-01-19T02:43:01.074Z,4.03
2023-01-19T02:45:30.216Z,4.30
2023-01-19T02:47:58.340Z,4.03
2023-01-19T02:50:38.334Z,3.83
2023-01-19T02:53:18.799Z,3.90
2023-01-19T02:55:55.279Z,4.35
2023-01-19T02:58:34.863Z,3.85
2023-01-19T03:01:12.627Z,4.07
2023-01-19T03:03:51.614Z,3.70
2023-01-19T03:06:28.719Z,3.88
2023-01-19T03:09:03.701Z,3.92
2023-01-19T03:11:39.925Z,4.03
2023-01-19T03:14:13.376Z,4.28
2023-01-19T03:16:45.121Z,4.20
2023-01-19T03:19:19.212Z,4.00
2023-01-19T03:21:51.399Z,4.70
2023-01-19T03:24:22.253Z,4.47
2023-01-19T03:26:58.881Z,3.90
2023-01-19T03:29:31.720Z,4.15
2023-01-19T03:32:02.774Z,4.10
2023-01-19T03:34:31.915Z,4.22
2023-01-19T03:37:04.429Z,4.05
2023-01-19T03:39:32.810Z,3.65
2023-01-19T03:42:06.082Z,3.55
2023-01-19T03:44:38.525Z,4.40
2023-01-19T03:47:08.837Z,3.75
2023-01-19T03:49:39.032Z,3.83
2023-01-19T03:52:08.611Z,4.05
2023-01-19T03:54:36.764Z,3.83
2023-01-19T03:57:06.075Z,4.60
2023-01-19T03:59:34.678Z,3.88
2023-01-19T04:02:02.952Z,3.80
2023-01-19T04:04:32.805Z,3.80
2023-01-19T04:07:01.564Z,4.10
2023-01-19T04:09:29.910Z,4.00
2023-01-19T04:11:57.929Z,4.13
2023-01-19T04:14:29.616Z,4.05
2023-01-19T04:16:57.479Z,3.60
2023-01-19T04:19:25.812Z,3.40
2023-01-19T04:21:53.768Z,3.85
2023-01-19T04:24:22.072Z,4.15
2023-01-19T04:26:52.470Z,3.20
2023-01-19T04:29:20.618Z,3.33
2023-01-19T04:31:50.373Z,4.20
2023-01-19T04:34:18.481Z,3.30
2023-01-19T04:36:47.041Z,3.70
2023-01-19T04:39:15.372Z,4.40
2023-01-19T04:41:43.448Z,3.90
2023-01-19T04:44:11.404Z,3.90
2023-01-19T04:46:39.350Z,3.90
2023-01-19T04:49:09.844Z,3.90
2023-01-19T04:51:37.965Z,3.85
2023-01-19T04:54:07.005Z,3.97
2023-01-19T04:56:34.983Z,3.75
2023-01-19T04:59:05.092Z,4.00
2023-01-19T05:01:34.178Z,4.15
2023-01-19T05:04:03.756Z,4.03
2023-01-19T05:06:33.307Z,4.03
2023-01-19T05:09:01.298Z,4.10
2023-01-19T05:11:29.230Z,4.07
2023-01-19T05:13:57.141Z,3.92
2023-01-19T05:16:24.973Z,3.63
2023-01-19T05:18:52.904Z,4.47
2023-01-19T05:21:21.248Z,4.85
2023-01-19T05:23:50.533Z,3.70
2023-01-19T05:26:18.749Z,3.95
2023-01-19T05:28:46.826Z,4.13
2023-01-19T05:31:14.857Z,3.63
2023-01-19T05:33:43.185Z,4.32
2023-01-19T05:36:11.364Z,4.53
2023-01-19T05:38:39.328Z,4.28
2023-01-19T05:41:08.817Z,3.90
2023-01-19T05:43:36.784Z,4.45
2023-01-19T05:46:05.520Z,4.53
2023-01-19T05:48:33.583Z,4.18
2023-01-19T05:51:02.180Z,4.70
2023-01-19T05:53:30.347Z,4.07
2023-01-19T05:56:01.623Z,4.60
2023-01-19T05:58:30.934Z,4.13
2023-01-19T06:01:02.933Z,4.80
2023-01-19T06:03:31.085Z,5.00
2023-01-19T06:05:59.684Z,3.83
2023-01-19T06:08:28.134Z,3.67
2023-01-19T06:10:56.088Z,4.47
2023-01-19T06:13:24.008Z,3.85
2023-01-19T06:15:59.329Z,4.20
2023-01-19T06:18:27.783Z,4.47
2023-01-19T06:20:58.855Z,4.25
2023-01-19T06:23:26.944Z,5.03
2023-01-19T06:25:55.101Z,4.22
2023-01-19T06:28:23.393Z,5.18
2023-01-19T06:30:52.454Z,5.10
2023-01-19T06:33:22.261Z,5.25
2023-01-19T06:35:51.460Z,5.15
2023-01-19T06:38:19.662Z,4.90
2023-01-19T06:40:53.684Z,4.57
2023-01-19T06:43:22.018Z,5.43
2023-01-19T06:45:50.511Z,4.22
2023-01-19T06:48:19.281Z,5.25
2023-01-19T06:50:49.946Z,5.22
2023-01-19T06:53:20.839Z,5.15
2023-01-19T06:55:48.804Z,4.80
2023-01-19T06:58:16.896Z,4.68
2023-01-19T07:00:45.073Z,4.75
2023-01-19T07:03:21.467Z,5.57
2023-01-19T07:05:54.408Z,4.85
2023-01-19T07:08:22.684Z,4.88
2023-01-19T07:11:25.073Z,5.40
2023-01-19T07:13:40.614Z,4.70
2023-01-19T07:16:10.988Z,4.88
2023-01-19T07:18:39.356Z,4.97
2023-01-19T07:21:08.884Z,5.28
2023-01-19T07:23:38.194Z,5.22
2023-01-19T07:26:06.254Z,4.90
2023-01-19T07:28:34.492Z,5.13
2023-01-19T07:31:02.605Z,5.45
2023-01-19T07:33:31.380Z,4.88
2023-01-19T07:35:59.323Z,4.63
2023-01-19T07:38:28.598Z,5.90
2023-01-19T07:41:01.808Z,4.82
2023-01-19T07:43:29.834Z,7.05
2023-01-19T07:45:58.221Z,6.07
2023-01-19T07:48:26.477Z,5.72
2023-01-19T07:50:54.740Z,5.60
2023-01-19T07:53:22.559Z,5.70
2023-01-19T07:55:56.803Z,6.22
2023-01-19T07:58:25.050Z,6.10
2023-01-19T08:00:53.891Z,6.03
2023-01-19T08:03:22.062Z,6.20
2023-01-19T08:05:51.744Z,6.32
2023-01-19T08:08:20.257Z,6.55
2023-01-19T08:10:51.545Z,6.18
2023-01-19T08:13:20.781Z,6.40
2023-01-19T08:15:50.700Z,5.97
2023-01-19T08:18:19.510Z,5.60
2023-01-19T08:20:47.706Z,6.10
2023-01-19T08:23:18.076Z,5.93
2023-01-19T08:25:46.318Z,6.35
2023-01-19T08:28:16.933Z,5.47
2023-01-19T08:30:53.795Z,6.47
2023-01-19T08:33:22.087Z,6.00
2023-01-19T08:35:51.540Z,7.13
2023-01-19T08:38:21.236Z,6.93
2023-01-19T08:40:49.951Z,6.47
2023-01-19T08:43:18.491Z,5.60
2023-01-19T08:45:52.140Z,5.53
2023-01-19T08:48:23.465Z,7.05
2023-01-19T08:50:52.697Z,8.35
2023-01-19T08:53:21.154Z,5.65
2023-01-19T08:55:49.104Z,10.05
2023-01-19T08:58:17.584Z,7.43
2023-01-19T09:00:45.542Z,7.07
2023-01-19T09:03:14.802Z,5.50
2023-01-19T09:05:42.750Z,6.70
2023-01-19T09:08:13.025Z,6.13
2023-01-19T09:10:46.558Z,5.50
2023-01-19T09:13:14.754Z,5.40
2023-01-19T09:15:44.099Z,5.13
2023-01-19T09:18:15.884Z,5.88
2023-01-19T09:20:45.397Z,5.57
2023-01-19T09:23:15.630Z,5.88
2023-01-19T09:25:45.198Z,5.40
2023-01-19T09:28:15.532Z,5.85
2023-01-19T09:30:44.492Z,5.63
2023-01-19T09:33:15.731Z,5.47
2023-01-19T09:35:45.475Z,5.88
2023-01-19T09:38:13.499Z,6.05
2023-01-19T09:40:44.541Z,6.03
2023-01-19T09:43:38.605Z,6.45
2023-01-19T09:46:13.353Z,6.65
2023-01-19T09:48:47.732Z,6.25
2023-01-19T09:51:19.629Z,6.88
2023-01-19T09:54:05.996Z,7.55
2023-01-19T09:56:34.376Z,6.20
2023-01-19T09:59:10.648Z,5.70
2023-01-19T10:01:51.831Z,6.40
2023-01-19T10:04:33.436Z,6.30
2023-01-19T10:07:10.614Z,5.20
2023-01-19T10:09:49.683Z,5.68
2023-01-19T10:12:30.478Z,5.18
2023-01-19T10:15:07.526Z,5.63
2023-01-19T10:17:48.245Z,5.22
2023-01-19T10:20:24.330Z,6.03
2023-01-19T10:22:52.146Z,5.53
2023-01-19T10:25:24.650Z,5.70
2023-01-19T10:27:52.786Z,5.78
2023-01-19T10:30:24.981Z,5.93
2023-01-19T10:32:53.812Z,5.32
2023-01-19T10:35:25.419Z,5.38
2023-01-19T10:37:56.350Z,5.13
2023-01-19T10:40:32.083Z,5.60
2023-01-19T10:43:00.734Z,5.32
2023-01-19T10:45:31.546Z,5.32
2023-01-19T10:48:02.231Z,5.10
2023-01-19T10:50:34.387Z,5.20
2023-01-19T10:53:05.804Z,5.35
2023-01-19T10:55:37.772Z,5.07
2023-01-19T10:58:06.968Z,4.55
2023-01-19T11:00:38.568Z,4.88
2023-01-19T11:03:23.679Z,4.82
2023-01-19T11:05:53.095Z,5.38
2023-01-19T11:08:25.087Z,6.38
2023-01-19T11:11:02.425Z,6.05
2023-01-19T11:13:30.556Z,7.07
2023-01-19T11:16:04.771Z,8.10
2023-01-19T11:18:35.107Z,7.95
2023-01-19T11:21:08.463Z,7.65
2023-01-19T11:23:43.097Z,7.63
2023-01-19T11:26:16.579Z,7.45
2023-01-19T11:28:49.112Z,6.78
2023-01-19T11:31:21.645Z,7.05
2023-01-19T11:33:52.050Z,6.78
2023-01-19T11:36:22.725Z,6.88
2023-01-19T11:38:53.271Z,6.47
2023-01-19T11:41:23.879Z,6.45
2023-01-19T11:43:55.764Z,7.63
2023-01-19T11:46:27.715Z,5.57
2023-01-19T11:49:02.131Z,5.80
2023-01-19T11:51:37.365Z,5.13
2023-01-19T11:54:16.266Z,4.60
2023-01-19T11:56:44.987Z,4.03
2023-01-19T11:59:14.198Z,3.80
2023-01-19T12:01:50.754Z,3.92
2023-01-19T12:04:24.801Z,7.32
2023-01-19T12:06:56.390Z,5.15
2023-01-19T12:09:27.980Z,5.43
2023-01-19T12:11:59.651Z,4.60
2023-01-19T12:14:32.935Z,5.22
2023-01-19T12:17:04.431Z,5.32
2023-01-19T12:19:43.362Z,4.72
2023-01-19T12:22:15.159Z,7.60
2023-01-19T12:24:48.232Z,6.68
2023-01-19T12:27:23.434Z,8.50
2023-01-19T12:29:51.860Z,5.72
2023-01-19T12:32:21.196Z,5.05
2023-01-19T12:34:50.090Z,4.90
2023-01-19T12:37:38.376Z,4.57
2023-01-19T12:40:26.156Z,4.75
2023-01-19T12:43:00.865Z,4.82
2023-01-19T12:45:33.209Z,5.38
2023-01-19T12:48:02.349Z,5.95
2023-01-19T12:50:36.141Z,5.20
2023-01-19T12:53:16.468Z,6.43
2023-01-19T12:55:46.852Z,5.30
2023-01-19T12:58:18.726Z,4.60
2023-01-19T13:00:49.352Z,5.10
2023-01-19T13:03:46.846Z,4.70
2023-01-19T13:06:14.921Z,5.18
2023-01-19T13:09:01.152Z,5.53
2023-01-19T13:11:34.223Z,5.28
2023-01-19T13:14:35.485Z,5.95
2023-01-19T13:17:17.829Z,5.35
2023-01-19T13:19:50.314Z,5.07
2023-01-19T13:23:04.630Z,5.47
2023-01-19T13:25:36.682Z,5.85
2023-01-19T13:28:12.020Z,5.35
2023-01-19T13:30:53.223Z,5.30
2023-01-19T13:33:24.467Z,5.75
2023-01-19T13:35:58.792Z,5.57
2023-01-19T13:38:28.063Z,5.00
2023-01-19T13:41:01.199Z,5.30
2023-01-19T13:43:37.283Z,5.22
2023-01-19T13:46:05.708Z,4.95
2023-01-19T13:48:34.065Z,5.47
2023-01-19T13:51:04.461Z,5.50
2023-01-19T13:53:33.352Z,6.40
2023-01-19T13:56:20.645Z,5.90
2023-01-19T13:59:11.772Z,5.82
2023-01-19T14:01:41.706Z,6.05
2023-01-19T14:04:28.780Z,6.15
2023-01-19T14:06:59.035Z,6.85
2023-01-19T14:09:27.006Z,7.90
2023-01-19T14:12:17.586Z,7.05
2023-01-19T14:14:48.303Z,7.72
2023-01-19T14:17:23.450Z,6.68
2023-01-19T14:19:52.096Z,6.32
2023-01-19T14:22:20.116Z,6.88
2023-01-19T14:24:48.120Z,7.18
2023-01-19T14:27:24.281Z,7.25
2023-01-19T14:29:55.040Z,7.70
2023-01-19T14:32:25.038Z,25.75
2023-01-19T14:34:54.853Z,9.32
2023-01-19T14:37:26.460Z,8.90
2023-01-19T14:39:59.461Z,8.57
2023-01-19T14:42:34.460Z,8.10
2023-01-19T14:45:03.945Z,9.10
2023-01-19T14:47:38.513Z,9.52
2023-01-19T14:50:18.711Z,8.57
2023-01-19T14:52:53.822Z,9.35
2023-01-19T14:55:25.144Z,8.80
2023-01-19T14:57:55.426Z,8.82
2023-01-19T15:00:23.771Z,11.15
2023-01-19T15:02:51.839Z,9.70
2023-01-19T15:05:20.640Z,9.48
2023-01-19T15:07:57.330Z,8.90
2023-01-19T15:10:36.896Z,7.38
2023-01-19T15:13:06.465Z,9.38
2023-01-19T15:15:39.205Z,11.02
2023-01-19T15:18:13.072Z,14.00
2023-01-19T15:20:40.945Z,14.77
2023-01-19T15:23:11.525Z,13.52
2023-01-19T15:25:42.916Z,14.05
2023-01-19T15:28:19.692Z,13.93
2023-01-19T15:30:52.805Z,11.82
2023-01-19T15:33:24.952Z,13.20
2023-01-19T15:35:54.432Z,12.20
2023-01-19T15:38:22.513Z,12.77
2023-01-19T15:40:51.691Z,13.27
2023-01-19T15:43:22.147Z,12.93
2023-01-19T15:46:03.675Z,13.23
2023-01-19T15:48:33.877Z,14.38
2023-01-19T15:51:04.186Z,12.63
2023-01-19T15:53:32.493Z,10.93
2023-01-19T15:56:04.744Z,11.20
2023-01-19T15:58:34.242Z,11.32
2023-01-19T16:01:02.659Z,10.50
2023-01-19T16:03:30.800Z,10.82
2023-01-19T16:06:04.224Z,13.38
2023-01-19T16:08:32.208Z,11.88
2023-01-19T16:11:05.493Z,11.45
2023-01-19T16:13:35.270Z,11.07
2023-01-19T16:16:04.716Z,12.23
2023-01-19T16:18:40.836Z,13.07
2023-01-19T16:21:09.345Z,13.15
2023-01-19T16:23:37.195Z,12.60
2023-01-19T16:26:08.337Z,11.82
2023-01-19T16:28:41.972Z,12.48
2023-01-19T16:31:09.773Z,14.07
2023-01-19T16:33:37.566Z,15.30
2023-01-19T16:36:19.262Z,15.35
2023-01-19T16:38:47.173Z,14.35
2023-01-19T16:41:15.191Z,13.95
2023-01-19T16:43:44.514Z,14.43
2023-01-19T16:46:20.326Z,14.77
2023-01-19T16:48:48.151Z,14.30
2023-01-19T16:51:16.267Z,16.60
2023-01-19T16:53:47.109Z,16.70
2023-01-19T16:56:15.787Z,17.35
2023-01-19T16:58:45.349Z,15.60
2023-01-19T17:01:17.244Z,20.17
2023-01-19T17:03:46.756Z,20.13
2023-01-19T17:06:18.259Z,19.25
2023-01-19T17:08:47.216Z,18.23
2023-01-19T17:11:20.571Z,18.50
2023-01-19T17:13:51.381Z,18.88
2023-01-19T17:16:19.312Z,17.60
2023-01-19T17:18:47.338Z,15.53
2023-01-19T17:21:17.813Z,15.83
2023-01-19T17:23:47.008Z,15.15
2023-01-19T17:26:15.361Z,15.73
2023-01-19T17:28:43.597Z,16.10
2023-01-19T17:31:17.681Z,19.00
2023-01-19T17:33:50.631Z,21.83
2023-01-19T17:36:22.338Z,19.05
2023-01-19T17:38:50.768Z,22.53
2023-01-19T17:41:21.343Z,27.53
2023-01-19T17:43:51.310Z,25.70
2023-01-19T17:46:22.224Z,23.53
2023-01-19T17:48:53.547Z,23.70
2023-01-19T17:51:22.949Z,22.67
2023-01-19T17:53:52.291Z,20.85
2023-01-19T17:56:22.155Z,21.70
2023-01-19T17:58:51.108Z,22.10
2023-01-19T18:01:22.332Z,20.17
2023-01-19T18:03:50.546Z,19.87
2023-01-19T18:06:18.953Z,19.23
2023-01-19T18:08:47.993Z,19.17
2023-01-19T18:11:17.841Z,20.17
2023-01-19T18:13:48.112Z,18.90
2023-01-19T18:16:18.339Z,20.13
2023-01-19T18:18:49.682Z,19.37
2023-01-19T18:21:17.945Z,20.93
2023-01-19T18:23:46.246Z,20.77
2023-01-19T18:26:16.624Z,22.07
2023-01-19T18:28:44.749Z,20.10
2023-01-19T18:31:14.579Z,19.97
2023-01-19T18:33:43.030Z,20.13
2023-01-19T18:36:12.633Z,21.87
2023-01-19T18:38:48.566Z,20.87
2023-01-19T18:41:18.648Z,21.40
2023-01-19T18:43:46.942Z,19.47
2023-01-19T18:46:16.215Z,19.67
2023-01-19T18:48:44.286Z,18.77
2023-01-19T18:51:15.856Z,20.00
2023-01-19T18:53:44.108Z,20.53
2023-01-19T18:56:13.730Z,21.07
2023-01-19T18:58:42.361Z,19.30
2023-01-19T19:01:19.909Z,20.77
2023-01-19T19:03:48.193Z,20.30
2023-01-19T19:06:20.540Z,21.03
2023-01-19T19:08:49.891Z,19.83
2023-01-19T19:11:18.407Z,19.27
2023-01-19T19:13:46.570Z,20.87
2023-01-19T19:16:14.823Z,19.57
2023-01-19T19:18:43.073Z,18.73
2023-01-19T19:21:13.075Z,17.97
2023-01-19T19:23:42.483Z,18.50
2023-01-19T19:26:12.265Z,18.40
2023-01-19T19:28:41.891Z,18.17
2023-01-19T19:31:11.783Z,18.30
2023-01-19T19:33:40.282Z,18.27
2023-01-19T19:36:09.681Z,17.17
2023-01-19T19:38:37.984Z,18.70
2023-01-19T19:41:08.509Z,17.53
2023-01-19T19:43:37.323Z,18.80
2023-01-19T19:46:07.228Z,19.03
2023-01-19T19:48:39.012Z,20.17
2023-01-19T19:51:17.392Z,18.50
2023-01-19T19:53:45.963Z,19.83
2023-01-19T19:56:15.508Z,19.23
2023-01-19T19:58:44.190Z,20.33
2023-01-19T20:01:14.387Z,19.43
2023-01-19T20:03:43.029Z,18.03
2023-01-19T20:06:13.929Z,20.00
2023-01-19T20:08:42.261Z,19.20
2023-01-19T20:11:11.888Z,18.13
2023-01-19T20:13:42.683Z,19.33
2023-01-19T20:16:12.555Z,18.23
2023-01-19T20:18:42.222Z,17.47
2023-01-19T20:21:15.591Z,18.67
2023-01-19T20:23:44.640Z,16.73
2023-01-19T20:26:15.156Z,18.47
2023-01-19T20:28:44.466Z,18.20
2023-01-19T20:31:13.970Z,18.17
2023-01-19T20:33:42.405Z,17.60
2023-01-19T20:36:11.638Z,20.77
2023-01-19T20:38:40.110Z,18.90
2023-01-19T20:41:09.233Z,17.57
2023-01-19T20:43:37.586Z,17.60
2023-01-19T20:46:07.168Z,14.93
2023-01-19T20:48:35.301Z,15.70
2023-01-19T20:51:04.989Z,14.47
2023-01-19T20:53:33.511Z,15.03
2023-01-19T20:56:06.061Z,14.53
2023-01-19T20:58:34.736Z,15.13
2023-01-19T21:01:12.910Z,15.23
2023-01-19T21:03:41.241Z,14.87
2023-01-19T21:06:09.356Z,15.20
2023-01-19T21:08:37.935Z,15.37
2023-01-19T21:11:07.196Z,15.03
2023-01-19T21:13:35.778Z,14.63
2023-01-19T21:16:04.587Z,14.37
2023-01-19T21:18:34.190Z,16.30
2023-01-19T21:21:02.069Z,15.83
2023-01-19T21:23:30.233Z,15.33
2023-01-19T21:26:00.206Z,14.70
2023-01-19T21:28:29.009Z,14.27
2023-01-19T21:30:59.508Z,14.90
2023-01-19T21:33:27.921Z,13.67
2023-01-19T21:35:58.770Z,15.00
2023-01-19T21:38:32.734Z,14.30
2023-01-19T21:41:00.521Z,14.40
2023-01-19T21:43:28.353Z,15.70
2023-01-19T21:45:56.312Z,15.40
2023-01-19T21:48:24.263Z,15.40
2023-01-19T21:50:58.998Z,15.53
2023-01-19T21:53:26.843Z,16.23
2023-01-19T21:55:54.905Z,13.77
2023-01-19T21:58:24.150Z,13.33
2023-01-19T22:00:52.148Z,12.73
2023-01-19T22:03:20.079Z,13.23
2023-01-19T22:05:48.107Z,13.30
2023-01-19T22:08:17.389Z,13.37
2023-01-19T22:10:45.269Z,12.67
2023-01-19T22:13:13.188Z,13.33
2023-01-19T22:15:49.688Z,12.63
2023-01-19T22:18:17.548Z,13.37
2023-01-19T22:20:46.008Z,12.93
2023-01-19T22:23:13.819Z,12.97
2023-01-19T22:25:43.265Z,13.07
2023-01-19T22:28:11.203Z,13.27
2023-01-19T22:30:39.298Z,13.57
2023-01-19T22:33:07.244Z,13.70
2023-01-19T22:35:35.167Z,13.93
2023-01-19T22:38:03.111Z,12.77
2023-01-19T22:40:30.902Z,14.13
2023-01-19T22:43:00.097Z,12.77
2023-01-19T22:45:28.017Z,13.73
2023-01-19T22:47:56.160Z,13.70
2023-01-19T22:50:24.035Z,15.00
2023-01-19T22:52:56.464Z,12.77
2023-01-19T22:55:24.493Z,14.70
2023-01-19T22:57:52.472Z,14.30
2023-01-19T23:00:23.037Z,14.30
2023-01-19T23:02:51.085Z,12.97
2023-01-19T23:05:19.075Z,13.07
2023-01-19T23:07:46.968Z,12.80
2023-01-19T23:10:14.974Z,11.97
2023-01-19T23:12:42.924Z,12.93
2023-01-19T23:15:11.814Z,12.40
2023-01-19T23:17:43.624Z,12.20
2023-01-19T23:20:12.813Z,12.13
2023-01-19T23:22:40.782Z,13.07
2023-01-19T23:25:09.250Z,12.77
2023-01-19T23:27:37.033Z,12.53
2023-01-19T23:30:05.550Z,11.33
2023-01-19T23:32:33.535Z,12.20
2023-01-19T23:35:02.819Z,14.80
2023-01-19T23:37:30.756Z,14.20
2023-01-19T23:39:58.631Z,14.30
2023-01-19T23:42:26.767Z,16.40
2023-01-19T23:44:55.328Z,13.60
2023-01-19T23:47:23.298Z,13.83
2023-01-19T23:49:51.241Z,15.47
2023-01-19T23:52:20.526Z,14.07
2023-01-19T23:54:48.659Z,13.17
2023-01-19T23:57:17.722Z,12.00
2023-01-19T23:59:45.739Z,11.17
